Bisbee Douglas International Airport
KDUG : now visible

Airfield :











YOU CAN JOIN US ON...

 
LOGIN :

Register | Disclaimer

   EN    FR    IT 

 









Legend :    VFR   Marginal VFR   IFR   Intensive IFR   Very Intensive IFR
Visi :
Ceiling :
>= 8 km
>= 3000ft
5 to 8 km
1000 to 3000 ft
1500m to 5 km
500 to 1000 ft
800 to 1500m
200 to 500 ft
< 800m
< 200 ft
Symbols :   Thunderstorms  Fog  Heavy snow  Heavy precipitations  Wind > 20 kt







- Airport Elevation : 4154 ft


KDUG - Bisbee Douglas International

CURRENT METAR :
  • 181856Z AUTO 32013G21KT 10SM CLR 32/13 A3008 RMK AO2 SLP108 T03170133

EXPIRED METARs :
  • 181756Z AUTO 34012G19KT 10SM CLR 32/13 A3010 RMK AO2 SLP116 T03170133 10317 20194 58013
  • 181656Z AUTO 01006KT 10SM CLR 29/14 A3012 RMK AO2 SLP123 T02890139

TAF KDUG
Valid from the 18 at 18:00 until the 19 at 18:00 UTC


181720Z 1818/1918 32005KT P6SM FEW100 SCT250
FM182000 32007KT P6SM VCTS SCT080CB BKN250
TEMPO 1822/1824 VRB20G35KT 4SM TSRA BKN080CB OVC250
FM190000 30010KT P6SM VCSH SCT080 BKN250
FM190400 14006KT P6SM SCT120 BKN250
KZAB FIR / North America



MET'MAP, your aeronautical weather chart ! - Copyright ORBIFLY December 2007 - Disclaimer

ORBIFLY MET'MAP TEAM :

Programming & Development : Alexandra Zaïnal
Concept & Development : Baudouin d'Aumeries
Co-Development & Prog : Marc-Olivier Méhu
Technical & hardware support : Manuel Goepfert

Contact : metmap@orbifly.com




SOURCES & CREDITS :

   NOAA       Earth
Advisory